Time;durP1;ratioP1;P1;durP2;ratioP2;P2;SDS_P1;SDS_P2;PMS_P1;PMS_P2;Temp;Humidity;BMP_temperature;BMP_pressure;BME280_temperature;BME280_humidity;BME280_pressure;Samples;Min_cycle;Max_cycle;Signal;HPM_P1;HPM_P2
2023/04/18 00:00:57;;;;;;;9.40;6.60;;;8.20;99.90;;;;;;5030869;28;20183;-70
2023/04/18 00:03:23;;;;;;;8.77;6.40;;;8.20;99.90;;;;;;5032749;28;20653;-71
2023/04/18 00:05:49;;;;;;;10.53;6.57;;;8.10;99.90;;;;;;5032598;28;20207;-71
2023/04/18 00:08:14;;;;;;;8.83;6.50;;;8.10;99.90;;;;;;5032199;28;20167;-70
2023/04/18 00:10:40;;;;;;;10.20;7.37;;;8.10;99.90;;;;;;5032054;28;20175;-70
2023/04/18 00:13:06;;;;;;;9.93;6.17;;;8.10;99.90;;;;;;5032501;28;20558;-70
2023/04/18 00:15:34;;;;;;;9.73;7.00;;;8.00;99.90;;;;;;5032286;28;20426;-71
2023/04/18 00:18:02;;;;;;;9.57;7.10;;;7.90;99.90;;;;;;5030435;28;20684;-70
2023/04/18 00:20:27;;;;;;;9.60;6.83;;;7.90;99.90;;;;;;5032420;28;20433;-70
2023/04/18 00:22:53;;;;;;;9.63;7.40;;;7.90;99.90;;;;;;5032631;28;20411;-71
2023/04/18 00:25:19;;;;;;;6.87;6.20;;;7.90;99.90;;;;;;5032447;28;20187;-71
2023/04/18 00:27:45;;;;;;;7.17;5.33;;;7.80;99.90;;;;;;5032048;28;20412;-70
2023/04/18 00:30:11;;;;;;;8.70;6.20;;;7.80;99.90;;;;;;5031958;28;20209;-70
2023/04/18 00:32:37;;;;;;;8.03;6.47;;;7.70;99.90;;;;;;5032393;28;20179;-70
2023/04/18 00:35:03;;;;;;;11.30;6.43;;;7.70;99.90;;;;;;5032202;28;20418;-70
2023/04/18 00:37:28;;;;;;;9.13;7.03;;;7.70;99.90;;;;;;5031915;28;20958;-70
2023/04/18 00:39:54;;;;;;;7.80;6.30;;;7.60;99.90;;;;;;5031024;28;20927;-69
2023/04/18 00:42:20;;;;;;;9.13;6.87;;;7.60;99.90;;;;;;5032261;28;20176;-72
2023/04/18 00:44:46;;;;;;;10.40;5.60;;;7.60;99.90;;;;;;5031748;28;20187;-71
2023/04/18 00:47:12;;;;;;;12.07;7.87;;;7.50;99.90;;;;;;5032053;28;20968;-71
2023/04/18 00:49:37;;;;;;;8.93;6.53;;;7.50;99.90;;;;;;5032189;28;20269;-70
2023/04/18 00:52:03;;;;;;;7.50;6.40;;;7.40;99.90;;;;;;5032097;28;20171;-71
2023/04/18 00:54:29;;;;;;;7.50;6.53;;;7.40;99.90;;;;;;5032011;28;20184;-71
2023/04/18 00:56:55;;;;;;;10.70;7.00;;;7.40;99.90;;;;;;5031551;28;20168;-72
2023/04/18 00:59:21;;;;;;;9.77;6.70;;;7.40;99.90;;;;;;5031965;28;20261;-72
2023/04/18 01:01:46;;;;;;;9.87;6.20;;;7.40;99.90;;;;;;5031935;28;20163;-71
2023/04/18 01:04:12;;;;;;;7.40;6.07;;;7.40;99.90;;;;;;5031794;28;20784;-72
2023/04/18 01:06:38;;;;;;;11.63;6.43;;;7.30;99.90;;;;;;5031884;28;20246;-71
2023/04/18 01:09:04;;;;;;;10.10;6.03;;;7.30;99.90;;;;;;5031682;28;20171;-71
2023/04/18 01:11:30;;;;;;;9.63;7.67;;;7.30;99.90;;;;;;5030615;28;20261;-71
2023/04/18 01:14:03;;;;;;;9.37;6.03;;;7.20;99.90;;;;;;5030458;28;20832;-71
2023/04/18 01:16:33;;;;;;;10.50;6.30;;;7.20;99.90;;;;;;5031850;28;20402;-71
2023/04/18 01:18:59;;;;;;;6.60;6.00;;;7.20;99.90;;;;;;5031554;28;20456;-69
2023/04/18 01:21:25;;;;;;;7.60;5.70;;;7.20;99.90;;;;;;5031840;28;20429;-70
2023/04/18 01:23:52;;;;;;;13.70;7.80;;;7.10;99.90;;;;;;5031768;28;21151;-70
2023/04/18 01:26:17;;;;;;;10.30;8.10;;;7.10;99.90;;;;;;5031700;28;20402;-71
2023/04/18 01:28:43;;;;;;;8.07;6.10;;;7.10;99.90;;;;;;5031472;28;20464;-71
2023/04/18 01:31:09;;;;;;;11.17;7.10;;;7.10;99.90;;;;;;5035479;28;20671;-71
2023/04/18 01:33:34;;;;;;;11.40;7.00;;;7.10;99.90;;;;;;5034641;28;20175;-70
2023/04/18 01:36:00;;;;;;;9.80;8.03;;;7.10;99.90;;;;;;5035670;28;20190;-71
2023/04/18 01:38:25;;;;;;;7.80;5.77;;;7.10;99.90;;;;;;5035096;28;20223;-72
2023/04/18 01:40:51;;;;;;;8.63;6.73;;;7.00;99.90;;;;;;5035572;28;20568;-72
2023/04/18 01:43:17;;;;;;;9.00;6.30;;;7.00;99.90;;;;;;5035389;28;20171;-71
2023/04/18 01:45:42;;;;;;;13.33;6.97;;;7.00;99.90;;;;;;5035393;28;20429;-70
2023/04/18 01:48:08;;;;;;;8.63;6.00;;;6.90;99.90;;;;;;5033847;28;20629;-71
2023/04/18 01:50:33;;;;;;;9.07;6.40;;;6.90;99.90;;;;;;5035448;28;20175;-71
2023/04/18 01:52:59;;;;;;;9.80;6.47;;;6.90;99.90;;;;;;5035377;28;20192;-70
2023/04/18 01:55:24;;;;;;;9.20;5.80;;;6.90;99.90;;;;;;5033919;28;20664;-70
2023/04/18 01:57:50;;;;;;;10.83;6.50;;;6.80;99.90;;;;;;5033914;28;20215;-70
2023/04/18 02:00:16;;;;;;;9.97;6.70;;;6.80;99.90;;;;;;5034868;28;20836;-70
2023/04/18 02:02:41;;;;;;;8.27;6.87;;;6.80;99.90;;;;;;5033799;28;20195;-70
2023/04/18 02:05:07;;;;;;;12.67;7.47;;;6.70;99.90;;;;;;5034607;28;20456;-70
2023/04/18 02:07:33;;;;;;;13.23;5.90;;;6.70;99.90;;;;;;5034698;28;20172;-70
2023/04/18 02:09:58;;;;;;;8.43;5.60;;;6.70;99.90;;;;;;5035078;28;20695;-70
2023/04/18 02:12:24;;;;;;;10.47;5.87;;;6.70;99.90;;;;;;5033385;28;20305;-72
2023/04/18 02:14:53;;;;;;;6.87;5.83;;;6.60;99.90;;;;;;5034910;28;20255;-70
2023/04/18 02:17:20;;;;;;;8.40;5.50;;;6.60;99.90;;;;;;5034712;28;20218;-70
2023/04/18 02:19:46;;;;;;;8.70;6.10;;;6.60;99.90;;;;;;5033450;28;20457;-70
2023/04/18 02:22:12;;;;;;;11.63;7.00;;;6.50;99.90;;;;;;5034919;28;20463;-70
2023/04/18 02:24:37;;;;;;;9.40;6.20;;;6.50;99.90;;;;;;5034694;28;20430;-70
2023/04/18 02:27:03;;;;;;;7.50;5.50;;;6.50;99.90;;;;;;5034506;28;20160;-70
2023/04/18 02:29:29;;;;;;;7.30;5.60;;;6.40;99.90;;;;;;5034655;28;20160;-69
2023/04/18 02:31:55;;;;;;;6.47;4.83;;;6.40;99.90;;;;;;5033504;28;20198;-70
2023/04/18 02:34:21;;;;;;;7.67;5.60;;;6.40;99.90;;;;;;5034477;28;20422;-71
2023/04/18 02:36:46;;;;;;;9.60;6.17;;;6.30;99.90;;;;;;5034523;28;20769;-71
2023/04/18 02:39:12;;;;;;;7.33;6.00;;;6.30;99.90;;;;;;5034198;28;20191;-71
2023/04/18 02:41:38;;;;;;;7.20;6.23;;;6.30;99.90;;;;;;5032873;28;20163;-71
2023/04/18 02:44:04;;;;;;;10.77;6.13;;;6.20;99.90;;;;;;5032922;28;20221;-71
2023/04/18 02:46:30;;;;;;;8.53;6.20;;;6.20;99.90;;;;;;5034338;28;20399;-69
2023/04/18 02:48:55;;;;;;;6.57;5.70;;;6.20;99.90;;;;;;5033966;28;20463;-70
2023/04/18 02:51:20;;;;;;;9.83;6.23;;;6.10;99.90;;;;;;5034441;28;20246;-71
2023/04/18 02:53:47;;;;;;;13.03;6.90;;;6.10;99.90;;;;;;5032840;28;20171;-70
2023/04/18 02:56:15;;;;;;;8.10;6.13;;;6.10;99.90;;;;;;5034156;28;20218;-70
2023/04/18 02:58:41;;;;;;;6.70;5.30;;;6.00;99.90;;;;;;5033666;28;20446;-70
2023/04/18 03:01:07;;;;;;;8.43;6.53;;;6.00;99.90;;;;;;5034129;28;20418;-71
2023/04/18 03:03:32;;;;;;;8.00;5.93;;;6.00;99.90;;;;;;5032771;28;20172;-71
2023/04/18 03:05:59;;;;;;;11.17;9.40;;;5.90;99.90;;;;;;5033924;28;20591;-70
2023/04/18 03:08:24;;;;;;;9.17;6.97;;;5.90;99.90;;;;;;5032430;28;20268;-70
2023/04/18 03:10:50;;;;;;;10.67;7.13;;;5.90;99.90;;;;;;5033907;28;20449;-70
2023/04/18 03:13:16;;;;;;;8.23;7.00;;;5.90;99.90;;;;;;5033782;28;20187;-69
2023/04/18 03:15:41;;;;;;;8.93;5.63;;;5.80;99.90;;;;;;5033753;28;20546;-70
2023/04/18 03:18:07;;;;;;;7.03;5.40;;;5.80;99.90;;;;;;5033511;28;20445;-71
2023/04/18 03:20:33;;;;;;;7.67;6.33;;;5.80;99.90;;;;;;5033903;28;20164;-69
2023/04/18 03:22:58;;;;;;;11.27;6.53;;;5.80;99.90;;;;;;5032453;28;20171;-70
2023/04/18 03:25:24;;;;;;;8.63;5.77;;;5.70;99.90;;;;;;5033651;28;20426;-69
2023/04/18 03:27:50;;;;;;;9.50;4.93;;;5.70;99.90;;;;;;5033302;28;20624;-70
2023/04/18 03:30:16;;;;;;;7.07;5.30;;;5.70;99.90;;;;;;5032281;28;20218;-70
2023/04/18 03:32:42;;;;;;;10.17;6.80;;;5.60;99.90;;;;;;5033569;28;20178;-71
2023/04/18 03:35:08;;;;;;;10.30;6.03;;;5.60;99.90;;;;;;5033358;28;20426;-71
2023/04/18 03:37:33;;;;;;;7.73;5.90;;;5.60;99.90;;;;;;5032991;28;20274;-71
2023/04/18 03:39:59;;;;;;;7.40;6.43;;;5.60;99.90;;;;;;5033367;28;20398;-70
2023/04/18 03:42:24;;;;;;;6.57;5.30;;;5.50;99.90;;;;;;5032038;28;20173;-70
2023/04/18 03:44:50;;;;;;;10.93;6.87;;;5.50;99.90;;;;;;5032053;28;20469;-71
2023/04/18 03:47:15;;;;;;;10.60;7.43;;;5.50;99.90;;;;;;5031756;28;20174;-72
2023/04/18 03:49:41;;;;;;;8.23;6.10;;;5.50;99.90;;;;;;5033173;28;20618;-71
2023/04/18 03:52:06;;;;;;;8.00;5.97;;;5.50;99.90;;;;;;5031017;28;20179;-72
2023/04/18 03:54:32;;;;;;;8.67;5.40;;;5.40;99.90;;;;;;5033026;28;20194;-71
2023/04/18 03:56:58;;;;;;;9.93;5.83;;;5.40;99.90;;;;;;5031338;28;20168;-71
2023/04/18 03:59:24;;;;;;;11.23;7.23;;;5.40;99.90;;;;;;5033085;28;20593;-70
2023/04/18 04:01:50;;;;;;;9.20;5.90;;;5.40;99.90;;;;;;5032934;28;20406;-71
2023/04/18 04:04:15;;;;;;;10.07;5.80;;;5.30;99.90;;;;;;5032887;28;20434;-71
2023/04/18 04:06:41;;;;;;;9.70;6.87;;;5.30;99.90;;;;;;5032791;28;20175;-70
2023/04/18 04:09:06;;;;;;;13.30;9.50;;;5.30;99.90;;;;;;5031549;28;20237;-72
2023/04/18 04:11:32;;;;;;;52.43;25.90;;;5.30;99.90;;;;;;5032808;28;20170;-71
2023/04/18 04:13:57;;;;;;;34.23;17.90;;;5.30;99.90;;;;;;5031376;28;20187;-71
2023/04/18 04:16:23;;;;;;;25.33;13.60;;;5.30;99.90;;;;;;5031574;28;20176;-70
2023/04/18 04:18:48;;;;;;;11.47;7.93;;;5.20;99.90;;;;;;5032220;28;20199;-71
2023/04/18 04:21:14;;;;;;;18.17;7.03;;;5.20;99.90;;;;;;5032560;28;20217;-70
2023/04/18 04:23:43;;;;;;;7.27;6.57;;;5.20;99.90;;;;;;5031228;28;20551;-71
2023/04/18 04:26:08;;;;;;;9.40;6.40;;;5.20;99.90;;;;;;5032355;28;20186;-71
2023/04/18 04:28:34;;;;;;;12.37;6.20;;;5.20;99.90;;;;;;5032144;28;20763;-71
2023/04/18 04:31:00;;;;;;;10.00;6.53;;;5.20;99.90;;;;;;5031246;28;20254;-71
2023/04/18 04:33:32;;;;;;;7.87;6.83;;;5.20;99.90;;;;;;5031893;28;20501;-71
2023/04/18 04:35:58;;;;;;;6.33;5.63;;;5.20;99.90;;;;;;5032319;28;20842;-71
2023/04/18 04:38:23;;;;;;;10.90;6.20;;;5.20;99.90;;;;;;5031987;28;20842;-70
2023/04/18 04:40:49;;;;;;;12.40;5.87;;;5.20;99.90;;;;;;5032207;28;20460;-71
2023/04/18 04:43:16;;;;;;;12.10;6.93;;;5.20;99.90;;;;;;5032034;28;20740;-71
2023/04/18 04:45:42;;;;;;;7.53;6.63;;;5.20;99.90;;;;;;5032087;28;20516;-71
2023/04/18 04:48:08;;;;;;;9.00;6.60;;;5.30;99.90;;;;;;5031949;28;20407;-72
2023/04/18 04:50:35;;;;;;;15.00;8.10;;;5.40;99.90;;;;;;5032145;28;20731;-70
2023/04/18 04:53:01;;;;;;;11.07;7.80;;;5.40;99.90;;;;;;5032193;28;20411;-71
2023/04/18 04:55:26;;;;;;;30.80;18.50;;;5.50;99.90;;;;;;5031977;28;20456;-72
2023/04/18 04:57:53;;;;;;;52.47;26.93;;;5.60;99.90;;;;;;5031774;28;20252;-70
2023/04/18 05:00:20;;;;;;;14.30;11.20;;;5.70;99.90;;;;;;5030715;28;20653;-71
2023/04/18 05:02:46;;;;;;;10.33;8.07;;;5.80;99.90;;;;;;5030698;28;20411;-70
2023/04/18 05:05:12;;;;;;;11.40;8.63;;;5.90;99.90;;;;;;5030772;28;20516;-71
2023/04/18 05:07:37;;;;;;;12.83;8.57;;;6.00;99.90;;;;;;5031756;28;20404;-71
2023/04/18 05:10:03;;;;;;;10.67;7.83;;;6.20;99.90;;;;;;5031791;28;20167;-71
2023/04/18 05:12:30;;;;;;;14.57;9.00;;;6.20;99.90;;;;;;5031787;28;20179;-70
2023/04/18 05:14:55;;;;;;;11.23;8.10;;;6.40;99.90;;;;;;5031762;28;20422;-72
2023/04/18 05:17:21;;;;;;;8.63;7.73;;;6.50;99.90;;;;;;5030259;28;20468;-70
2023/04/18 05:19:46;;;;;;;13.10;9.03;;;6.60;99.90;;;;;;5030541;28;20176;-71
2023/04/18 05:22:12;;;;;;;10.70;7.80;;;6.70;99.90;;;;;;5030801;28;20649;-71
2023/04/18 05:24:38;;;;;;;17.57;8.87;;;6.80;99.90;;;;;;5031848;28;20342;-71
2023/04/18 05:27:04;;;;;;;16.20;9.53;;;6.80;99.90;;;;;;5031607;28;20187;-72
2023/04/18 05:29:29;;;;;;;11.70;7.77;;;7.00;99.90;;;;;;5031817;28;20406;-71
2023/04/18 05:31:55;;;;;;;15.83;8.07;;;7.20;99.90;;;;;;5030468;28;20172;-70
2023/04/18 05:34:20;;;;;;;11.17;7.93;;;7.30;99.90;;;;;;5031755;28;20233;-71
2023/04/18 05:36:46;;;;;;;10.20;7.33;;;7.50;99.90;;;;;;5030375;28;20250;-71
2023/04/18 05:39:12;;;;;;;14.67;7.80;;;7.60;99.90;;;;;;5031413;28;20195;-71
2023/04/18 05:41:38;;;;;;;13.63;9.17;;;7.80;99.90;;;;;;5030513;28;20456;-71
2023/04/18 05:44:03;;;;;;;12.77;7.50;;;8.00;99.90;;;;;;5031509;28;20172;-71
2023/04/18 05:46:29;;;;;;;9.83;8.10;;;8.20;99.90;;;;;;5031523;28;20171;-71
2023/04/18 05:48:55;;;;;;;10.50;8.27;;;8.40;99.90;;;;;;5031213;28;20821;-71
2023/04/18 05:51:21;;;;;;;15.90;12.43;;;8.60;99.90;;;;;;5030287;28;20175;-71
2023/04/18 05:53:46;;;;;;;15.80;10.37;;;9.00;99.90;;;;;;5030034;28;20468;-71
2023/04/18 05:56:12;;;;;;;11.63;8.93;;;9.40;99.90;;;;;;5031632;28;20680;-71
2023/04/18 05:58:37;;;;;;;10.70;8.73;;;9.80;99.90;;;;;;5030034;28;20604;-71
2023/04/18 06:01:03;;;;;;;11.87;9.37;;;10.30;99.90;;;;;;5030190;28;20176;-71
2023/04/18 06:03:28;;;;;;;10.23;8.57;;;10.70;99.90;;;;;;5031456;28;20172;-71
2023/04/18 06:05:54;;;;;;;8.97;8.07;;;11.00;99.90;;;;;;5030248;28;20202;-71
2023/04/18 06:08:20;;;;;;;9.47;8.47;;;11.30;99.90;;;;;;5031108;28;20183;-72
2023/04/18 06:10:45;;;;;;;9.03;8.13;;;11.90;99.90;;;;;;5031381;28;20171;-71
2023/04/18 06:13:11;;;;;;;10.00;7.27;;;12.50;99.90;;;;;;5029960;28;20684;-71
2023/04/18 06:15:36;;;;;;;10.13;8.40;;;13.40;99.90;;;;;;5031165;28;20285;-71
2023/04/18 06:18:02;;;;;;;9.40;6.30;;;14.20;99.90;;;;;;5034590;28;20691;-71
2023/04/18 06:20:27;;;;;;;13.40;8.23;;;15.10;99.90;;;;;;5033696;28;20652;-72
2023/04/18 06:22:53;;;;;;;7.30;6.37;;;15.50;99.90;;;;;;5034723;28;20558;-69
2023/04/18 06:25:19;;;;;;;8.57;6.93;;;16.00;99.90;;;;;;5034779;28;20281;-69
2023/04/18 06:27:44;;;;;;;9.13;7.10;;;16.50;99.90;;;;;;5032436;28;20171;-69
2023/04/18 06:30:10;;;;;;;8.00;7.17;;;16.80;95.20;;;;;;5033893;28;20171;-69
2023/04/18 06:32:35;;;;;;;8.97;7.00;;;17.00;92.60;;;;;;5033315;28;20172;-71
2023/04/18 06:35:01;;;;;;;8.67;6.63;;;17.50;89.70;;;;;;5034564;28;20194;-69
2023/04/18 06:37:27;;;;;;;7.33;6.50;;;18.00;85.50;;;;;;5034091;28;20202;-68
2023/04/18 06:39:53;;;;;;;9.47;7.10;;;18.40;80.60;;;;;;5033259;28;20641;-68
2023/04/18 06:42:18;;;;;;;12.13;7.27;;;18.40;73.00;;;;;;5034460;28;20410;-67
2023/04/18 06:44:44;;;;;;;6.97;5.93;;;18.10;70.50;;;;;;5034316;28;20187;-67
2023/04/18 06:47:10;;;;;;;8.90;7.27;;;17.90;71.40;;;;;;5034101;28;20743;-68
2023/04/18 06:49:35;;;;;;;8.00;6.53;;;18.10;72.20;;;;;;5034413;28;20186;-68
2023/04/18 06:52:01;;;;;;;9.63;6.10;;;18.50;69.90;;;;;;5034262;28;20400;-70
2023/04/18 06:54:26;;;;;;;7.63;6.90;;;19.40;68.90;;;;;;5034176;28;20183;-70
2023/04/18 06:56:52;;;;;;;6.53;5.87;;;20.50;64.60;;;;;;5033982;28;20172;-69
2023/04/18 06:59:20;;;;;;;8.73;6.60;;;21.50;59.20;;;;;;5032956;28;20195;-69
2023/04/18 07:01:46;;;;;;;7.23;6.20;;;22.00;55.30;;;;;;5034212;28;20316;-68
2023/04/18 07:04:11;;;;;;;6.70;6.10;;;21.90;52.30;;;;;;5033972;28;20430;-68
2023/04/18 07:06:37;;;;;;;7.60;6.33;;;21.40;51.60;;;;;;5034049;28;20402;-68
2023/04/18 07:09:02;;;;;;;5.87;5.17;;;21.20;51.70;;;;;;5033515;28;20168;-68
2023/04/18 07:11:28;;;;;;;6.70;5.57;;;21.20;51.90;;;;;;5033987;28;20168;-68
2023/04/18 07:13:54;;;;;;;6.50;5.17;;;21.30;51.40;;;;;;5032469;28;20657;-69
2023/04/18 07:16:20;;;;;;;6.10;5.10;;;22.10;51.50;;;;;;5033854;28;20398;-68
2023/04/18 07:18:45;;;;;;;6.43;5.57;;;22.80;49.60;;;;;;5032248;28;20225;-70
2023/04/18 07:21:11;;;;;;;8.20;5.87;;;22.90;47.20;;;;;;5033689;28;20172;-69
2023/04/18 07:23:36;;;;;;;8.23;5.63;;;22.90;46.60;;;;;;5033878;28;20214;-70
2023/04/18 07:26:04;;;;;;;6.97;5.80;;;23.20;46.20;;;;;;5032257;28;20737;-69
2023/04/18 07:28:30;;;;;;;4.97;4.50;;;23.60;45.50;;;;;;5032485;28;20172;-68
2023/04/18 07:30:56;;;;;;;7.17;5.67;;;24.20;45.70;;;;;;5033473;28;20406;-68
2023/04/18 07:33:22;;;;;;;6.37;5.00;;;24.80;44.10;;;;;;5033552;28;20406;-68
2023/04/18 07:35:49;;;;;;;6.53;5.13;;;25.40;43.10;;;;;;5032107;28;20192;-69
2023/04/18 07:38:15;;;;;;;5.33;4.83;;;26.20;41.20;;;;;;5033052;28;20438;-69
2023/04/18 07:40:40;;;;;;;5.23;4.73;;;26.70;39.70;;;;;;5033426;28;20410;-70
2023/04/18 07:43:06;;;;;;;7.13;5.07;;;27.20;38.90;;;;;;5033400;28;20444;-70
2023/04/18 07:45:34;;;;;;;5.70;5.20;;;28.10;37.80;;;;;;5031905;28;20192;-69
2023/04/18 07:48:00;;;;;;;5.33;4.83;;;28.40;36.10;;;;;;5033097;28;20160;-69
2023/04/18 07:50:26;;;;;;;6.03;5.47;;;29.00;36.40;;;;;;5033170;28;20421;-69
2023/04/18 07:52:51;;;;;;;6.07;5.13;;;29.10;34.60;;;;;;5033127;28;20406;-69
2023/04/18 07:55:17;;;;;;;10.00;5.47;;;29.10;34.20;;;;;;5033073;28;20194;-70
2023/04/18 07:57:43;;;;;;;5.87;4.90;;;28.90;33.50;;;;;;5032546;28;20195;-70
2023/04/18 08:00:10;;;;;;;4.67;4.20;;;28.10;33.50;;;;;;5032934;28;20166;-68
2023/04/18 08:02:36;;;;;;;4.90;4.40;;;27.50;33.60;;;;;;5032927;28;20159;-69
2023/04/18 08:05:01;;;;;;;6.23;4.70;;;26.40;34.80;;;;;;5032764;28;20418;-68
2023/04/18 08:07:27;;;;;;;5.03;4.53;;;26.70;35.90;;;;;;5032628;28;20175;-69
2023/04/18 08:09:52;;;;;;;6.00;5.40;;;27.10;34.70;;;;;;5031607;28;20263;-68
2023/04/18 08:12:18;;;;;;;5.17;4.77;;;27.30;35.40;;;;;;5032622;28;20257;-69
2023/04/18 08:14:43;;;;;;;6.50;4.30;;;27.80;33.80;;;;;;5032695;28;20187;-68
2023/04/18 08:17:09;;;;;;;6.43;3.97;;;27.80;33.60;;;;;;5032539;28;20961;-68
2023/04/18 08:19:34;;;;;;;4.97;4.07;;;28.20;33.70;;;;;;5031463;28;20182;-68
2023/04/18 08:22:09;;;;;;;4.23;3.90;;;28.70;33.10;;;;;;5032621;28;20168;-69
2023/04/18 08:24:35;;;;;;;4.73;4.07;;;29.50;32.80;;;;;;5031247;28;20190;-69
2023/04/18 08:27:01;;;;;;;4.57;4.17;;;30.20;32.30;;;;;;5032217;28;20489;-70
2023/04/18 08:29:26;;;;;;;7.77;5.03;;;31.20;32.70;;;;;;5032426;28;20498;-69
2023/04/18 08:31:52;;;;;;;6.50;5.00;;;31.30;29.80;;;;;;5031287;28;20171;-68
2023/04/18 08:34:17;;;;;;;5.20;4.67;;;30.00;30.00;;;;;;5031263;28;20195;-68
2023/04/18 08:36:43;;;;;;;7.60;4.17;;;28.70;31.80;;;;;;5031286;28;20579;-69
2023/04/18 08:39:09;;;;;;;4.60;4.20;;;27.70;31.90;;;;;;5031693;28;20191;-69
2023/04/18 08:41:38;;;;;;;5.17;4.70;;;26.50;32.80;;;;;;5032325;28;20222;-68
2023/04/18 08:44:06;;;;;;;5.73;5.13;;;25.00;33.90;;;;;;5032205;28;20218;-69
2023/04/18 08:46:35;;;;;;;5.00;4.00;;;24.10;35.70;;;;;;5032196;28;20422;-68
2023/04/18 08:49:03;;;;;;;4.87;4.37;;;24.20;37.00;;;;;;5031925;28;20417;-68
2023/04/18 08:51:32;;;;;;;5.57;4.97;;;23.60;36.90;;;;;;5032256;28;20404;-68
2023/04/18 08:54:01;;;;;;;5.30;4.20;;;23.10;37.60;;;;;;5032117;28;20452;-68
2023/04/18 08:56:27;;;;;;;5.20;4.27;;;22.40;38.00;;;;;;5032072;28;20821;-69
2023/04/18 08:58:55;;;;;;;5.10;4.60;;;21.60;38.60;;;;;;5030211;28;20580;-67
2023/04/18 09:01:21;;;;;;;5.50;4.87;;;20.50;39.90;;;;;;5032000;28;20415;-68
2023/04/18 09:03:47;;;;;;;8.47;4.90;;;19.80;40.90;;;;;;5031709;28;20399;-68
2023/04/18 09:06:17;;;;;;;7.40;4.40;;;19.10;42.30;;;;;;5031774;28;20480;-67
2023/04/18 09:08:56;;;;;;;5.90;4.17;;;18.60;43.30;;;;;;5031652;28;20581;-67
2023/04/18 09:11:27;;;;;;;5.53;4.20;;;18.10;44.00;;;;;;5032281;28;20958;-67
2023/04/18 09:13:55;;;;;;;4.83;3.87;;;17.90;45.00;;;;;;5030526;28;20502;-69
2023/04/18 09:16:22;;;;;;;3.80;3.50;;;17.60;45.90;;;;;;5031847;28;20907;-68
2023/04/18 09:19:11;;;;;;;5.00;4.50;;;17.40;46.80;;;;;;5031389;28;20922;-68
2023/04/18 09:21:41;;;;;;;4.33;3.93;;;17.00;46.70;;;;;;5031691;28;20417;-68
2023/04/18 09:24:22;;;;;;;5.70;4.83;;;16.70;47.80;;;;;;5031446;28;20880;-69
2023/04/18 09:26:49;;;;;;;5.23;4.70;;;16.40;49.00;;;;;;5031723;28;20911;-69
2023/04/18 09:29:17;;;;;;;7.10;4.57;;;16.20;49.50;;;;;;5031609;28;20394;-70
2023/04/18 09:32:04;;;;;;;5.87;3.93;;;16.00;49.90;;;;;;5031789;28;20402;-68
2023/04/18 09:34:32;;;;;;;5.60;3.73;;;15.80;51.00;;;;;;5031733;28;21069;-68
2023/04/18 09:37:06;;;;;;;7.10;4.50;;;15.70;51.80;;;;;;5031502;28;20402;-69
2023/04/18 09:39:31;;;;;;;6.20;4.43;;;15.60;52.60;;;;;;5031655;28;20417;-69
2023/04/18 09:41:58;;;;;;;6.47;4.90;;;15.60;53.00;;;;;;5031705;28;20895;-68
2023/04/18 09:44:23;;;;;;;5.13;4.50;;;15.50;53.90;;;;;;5031637;28;20195;-68
2023/04/18 09:46:49;;;;;;;6.73;4.80;;;15.60;55.00;;;;;;5031531;28;20401;-73
2023/04/18 09:49:15;;;;;;;3.73;3.43;;;15.80;55.10;;;;;;5030030;28;20180;-69
2023/04/18 09:51:43;;;;;;;5.37;4.30;;;15.80;54.30;;;;;;5034504;28;20218;-69
2023/04/18 09:54:13;;;;;;;6.23;5.17;;;15.80;55.50;;;;;;5035270;28;20496;-71
2023/04/18 09:56:42;;;;;;;6.37;4.37;;;16.00;56.30;;;;;;5035242;28;20414;-69
2023/04/18 09:59:09;;;;;;;6.17;4.53;;;16.30;55.70;;;;;;5034976;28;20453;-68
2023/04/18 10:01:35;;;;;;;4.90;3.87;;;16.60;56.30;;;;;;5035274;28;20888;-68
2023/04/18 10:04:03;;;;;;;6.40;4.10;;;17.00;55.60;;;;;;5035109;28;20501;-68
2023/04/18 10:06:32;;;;;;;5.00;3.80;;;17.40;55.20;;;;;;5033849;28;20418;-68
2023/04/18 10:08:58;;;;;;;7.93;4.90;;;17.80;54.20;;;;;;5034841;28;20442;-69
2023/04/18 10:11:24;;;;;;;5.53;5.00;;;17.90;53.60;;;;;;5035035;28;20825;-68
2023/04/18 10:13:54;;;;;;;6.27;4.40;;;18.20;53.30;;;;;;5035197;28;20516;-69
2023/04/18 10:16:20;;;;;;;5.23;3.70;;;18.30;52.60;;;;;;5035129;28;20179;-68
2023/04/18 10:18:45;;;;;;;5.83;4.00;;;18.40;52.60;;;;;;5033311;28;20477;-68
2023/04/18 10:21:11;;;;;;;4.77;3.90;;;18.90;53.60;;;;;;5034881;28;20168;-68
2023/04/18 10:23:38;;;;;;;6.10;4.20;;;20.30;53.00;;;;;;5033604;28;20178;-68
2023/04/18 10:26:08;;;;;;;5.23;3.40;;;21.60;50.60;;;;;;5034812;28;20179;-69
2023/04/18 10:28:53;;;;;;;4.53;4.13;;;22.00;47.60;;;;;;5034533;28;20413;-69
2023/04/18 10:31:21;;;;;;;5.67;3.87;;;22.20;47.70;;;;;;5034634;28;20398;-68
2023/04/18 10:33:48;;;;;;;5.20;4.70;;;23.40;47.40;;;;;;5034702;28;20437;-68
2023/04/18 10:36:19;;;;;;;8.00;4.10;;;23.70;45.70;;;;;;5034530;28;20422;-68
2023/04/18 10:38:51;;;;;;;4.47;4.07;;;24.10;45.40;;;;;;5034428;28;20511;-69
2023/04/18 10:41:30;;;;;;;4.40;4.00;;;24.10;44.80;;;;;;5033274;28;20803;-68
2023/04/18 10:44:14;;;;;;;4.27;3.37;;;24.80;44.00;;;;;;5034445;28;20406;-70
2023/04/18 10:46:51;;;;;;;4.00;3.63;;;28.90;43.20;;;;;;5033135;28;20418;-69
2023/04/18 10:49:27;;;;;;;4.23;3.90;;;32.00;38.50;;;;;;5034325;28;20405;-69
2023/04/18 10:51:54;;;;;;;4.03;3.67;;;31.60;32.90;;;;;;5033105;28;20457;-69
2023/04/18 10:54:35;;;;;;;4.50;4.07;;;30.10;32.80;;;;;;5034383;28;20513;-69
2023/04/18 10:57:03;;;;;;;4.57;3.80;;;28.60;33.30;;;;;;5032593;28;20402;-69
2023/04/18 10:59:31;;;;;;;5.07;4.57;;;27.30;34.90;;;;;;5034087;28;20461;-69
2023/04/18 11:02:03;;;;;;;4.63;4.03;;;26.70;36.50;;;;;;5033803;28;20406;-69
2023/04/18 11:04:29;;;;;;;4.47;3.70;;;27.70;37.40;;;;;;5034064;28;20781;-69
2023/04/18 11:06:56;;;;;;;7.90;3.77;;;30.80;37.80;;;;;;5033696;28;20406;-72
2023/04/18 11:09:22;;;;;;;5.43;4.93;;;33.60;34.60;;;;;;5033964;28;20418;-69
2023/04/18 11:12:09;;;;;;;5.33;4.83;;;33.10;31.20;;;;;;5033751;28;20437;-69
2023/04/18 11:14:46;;;;;;;4.10;3.70;;;31.30;31.00;;;;;;5032336;28;20438;-70
2023/04/18 11:17:17;;;;;;;4.80;3.80;;;29.70;31.70;;;;;;5033483;28;20769;-69
2023/04/18 11:19:43;;;;;;;30.07;11.03;;;27.90;32.70;;;;;;5033829;28;20398;-70
2023/04/18 11:22:08;;;;;;;17.87;7.60;;;26.50;35.00;;;;;;5033711;28;20452;-68
2023/04/18 11:24:34;;;;;;;6.43;4.73;;;25.70;36.40;;;;;;5032357;28;20289;-71
2023/04/18 11:27:01;;;;;;;5.40;4.77;;;25.40;38.00;;;;;;5032128;28;20183;-71
2023/04/18 11:29:27;;;;;;;5.43;4.27;;;27.70;39.40;;;;;;5032428;28;20178;-72
2023/04/18 11:31:53;;;;;;;5.10;4.60;;;30.00;36.00;;;;;;5033777;28;20927;-71
2023/04/18 11:34:18;;;;;;;6.73;4.30;;;31.30;34.40;;;;;;5033299;28;20266;-71
2023/04/18 11:36:48;;;;;;;6.27;5.77;;;33.00;33.60;;;;;;5033391;28;20168;-72
2023/04/18 11:39:14;;;;;;;6.20;5.70;;;35.70;31.80;;;;;;5031936;28;20684;-71
2023/04/18 11:41:40;;;;;;;11.27;7.17;;;36.00;29.70;;;;;;5033375;28;20417;-72
2023/04/18 11:44:06;;;;;;;5.67;5.10;;;34.80;28.90;;;;;;5032095;28;20164;-71
2023/04/18 11:46:38;;;;;;;5.97;4.87;;;33.10;29.40;;;;;;5033259;28;20978;-72
2023/04/18 11:49:04;;;;;;;4.67;4.13;;;30.90;30.00;;;;;;5032717;28;20229;-71
2023/04/18 11:51:33;;;;;;;5.17;4.40;;;29.50;31.80;;;;;;5032787;28;20924;-72
2023/04/18 11:53:58;;;;;;;4.93;3.77;;;28.10;33.60;;;;;;5052961;28;20509;-70
2023/04/18 11:56:24;;;;;;;6.60;5.43;;;27.20;35.00;;;;;;5053055;28;20439;-71
2023/04/18 11:58:49;;;;;;;5.30;4.60;;;27.10;36.20;;;;;;5051350;28;20684;-70
2023/04/18 12:01:17;;;;;;;7.17;5.30;;;27.20;36.90;;;;;;5052971;28;20169;-71
2023/04/18 12:03:57;;;;;;;5.00;4.37;;;28.00;38.10;;;;;;5052862;28;20166;-71
2023/04/18 12:06:23;;;;;;;4.43;3.63;;;28.40;35.90;;;;;;5052895;28;20389;-70
2023/04/18 12:08:48;;;;;;;6.60;4.20;;;30.10;36.00;;;;;;5052336;28;20406;-70
2023/04/18 12:11:20;;;;;;;5.50;4.23;;;31.10;34.00;;;;;;5051483;28;20186;-71
2023/04/18 12:13:45;;;;;;;4.97;4.13;;;30.60;33.50;;;;;;5052017;28;20179;-70
2023/04/18 12:16:11;;;;;;;5.23;4.73;;;29.80;33.50;;;;;;5051843;28;20429;-70
2023/04/18 12:18:38;;;;;;;4.90;4.40;;;28.80;34.00;;;;;;5052181;28;20198;-71
2023/04/18 12:21:04;;;;;;;4.90;4.47;;;27.50;35.10;;;;;;5052591;28;20305;-70
2023/04/18 12:23:39;;;;;;;5.40;4.90;;;26.40;36.10;;;;;;5052515;28;20476;-70
2023/04/18 12:26:12;;;;;;;4.80;4.30;;;25.40;37.50;;;;;;5051738;28;20417;-70
2023/04/18 12:28:38;;;;;;;5.13;4.63;;;24.90;40.10;;;;;;5052089;28;20743;-70
2023/04/18 12:31:06;;;;;;;4.80;4.30;;;24.90;39.70;;;;;;5052436;28;20413;-70
2023/04/18 12:33:33;;;;;;;6.07;4.90;;;24.70;39.60;;;;;;5052396;28;20198;-70
2023/04/18 12:35:58;;;;;;;5.00;4.27;;;24.40;39.80;;;;;;5052309;28;20425;-70
2023/04/18 12:38:24;;;;;;;10.70;7.43;;;24.50;41.30;;;;;;5051903;28;20452;-70
2023/04/18 12:40:50;;;;;;;12.80;4.80;;;24.70;41.00;;;;;;5052301;28;20485;-70
2023/04/18 12:43:17;;;;;;;4.17;3.77;;;24.80;41.00;;;;;;5052191;28;20164;-70
2023/04/18 12:45:44;;;;;;;6.60;5.00;;;24.80;41.00;;;;;;5052043;28;21098;-70